createdAt,value
2018-09-14T00:00:01.998Z,21.00
2018-09-14T00:01:01.992Z,20.60
2018-09-14T00:02:01.975Z,20.70
2018-09-14T00:03:01.988Z,21.80
2018-09-14T00:04:01.959Z,19.80
2018-09-14T00:05:01.965Z,19.90
2018-09-14T00:06:01.933Z,17.40
2018-09-14T00:07:01.922Z,17.60
2018-09-14T00:08:01.909Z,17.60
2018-09-14T00:09:01.898Z,18.60
2018-09-14T00:10:01.908Z,18.50
2018-09-14T00:11:01.875Z,17.90
2018-09-14T00:12:01.864Z,18.00
2018-09-14T00:13:01.855Z,19.40
2018-09-14T00:14:01.842Z,17.00
2018-09-14T00:15:01.861Z,17.90
2018-09-14T00:16:01.827Z,16.90
2018-09-14T00:17:01.808Z,16.80
2018-09-14T00:18:01.796Z,17.60
2018-09-14T00:19:01.807Z,15.70
2018-09-14T00:20:01.788Z,17.60
2018-09-14T00:21:01.763Z,17.20
2018-09-14T00:22:01.755Z,18.40
2018-09-14T00:23:01.740Z,18.30
2018-09-14T00:24:01.730Z,15.70
2018-09-14T00:25:01.741Z,17.50
2018-09-14T00:26:01.709Z,20.00
2018-09-14T00:27:01.696Z,17.10
2018-09-14T00:28:01.686Z,15.80
2018-09-14T00:29:01.674Z,17.20
2018-09-14T00:30:01.684Z,17.60
2018-09-14T00:31:01.677Z,17.30
2018-09-14T00:32:01.642Z,17.70
2018-09-14T00:33:01.630Z,18.80
2018-09-14T00:34:01.618Z,17.80
2018-09-14T00:35:01.606Z,18.30
2018-09-14T00:36:01.616Z,16.90
2018-09-14T00:37:01.584Z,18.00
2018-09-14T00:38:01.574Z,16.90
2018-09-14T00:39:01.565Z,17.60
2018-09-14T00:40:01.574Z,17.70
2018-09-14T00:41:01.541Z,15.70
2018-09-14T00:42:01.532Z,18.80
2018-09-14T00:43:01.522Z,18.50
2018-09-14T00:44:01.507Z,18.30
2018-09-14T00:45:01.517Z,17.50
2018-09-14T00:46:01.486Z,16.70
2018-09-14T00:47:01.472Z,19.30
2018-09-14T00:48:01.462Z,17.70
2018-09-14T00:49:01.452Z,17.30
2018-09-14T00:50:01.461Z,17.70
2018-09-14T00:51:01.429Z,18.30
2018-09-14T00:52:01.438Z,19.00
2018-09-14T00:53:01.406Z,19.20
2018-09-14T00:54:01.418Z,19.20
2018-09-14T00:55:01.406Z,17.40
2018-09-14T00:56:01.382Z,19.00
2018-09-14T00:57:01.364Z,20.70
2018-09-14T00:58:01.353Z,20.50
2018-09-14T00:59:01.339Z,23.20
2018-09-14T01:00:01.349Z,19.30
2018-09-14T01:01:01.318Z,18.20
2018-09-14T01:02:01.311Z,19.50
2018-09-14T01:03:01.294Z,17.50
2018-09-14T01:04:01.317Z,17.60
2018-09-14T01:05:01.273Z,17.40
2018-09-14T01:06:01.262Z,18.10
2018-09-14T01:07:01.250Z,16.50
2018-09-14T01:08:01.238Z,17.50
2018-09-14T01:09:01.252Z,15.70
2018-09-14T01:10:01.217Z,16.90
2018-09-14T01:11:01.205Z,17.10
2018-09-14T01:12:01.196Z,15.50
2018-09-14T01:13:01.187Z,17.30
2018-09-14T01:14:01.202Z,17.30
2018-09-14T01:15:01.165Z,16.20
2018-09-14T01:16:01.150Z,15.70
2018-09-14T01:17:01.141Z,16.30
2018-09-14T01:18:01.127Z,16.20
2018-09-14T01:19:01.138Z,16.60
2018-09-14T01:20:01.131Z,15.70
2018-09-14T01:21:01.094Z,16.20
2018-09-14T01:22:01.085Z,18.70
2018-09-14T01:23:01.071Z,15.40
2018-09-14T01:24:01.073Z,15.80
2018-09-14T01:25:01.052Z,16.70
2018-09-14T01:26:01.038Z,14.20
2018-09-14T01:27:01.028Z,15.50
2018-09-14T01:28:01.035Z,14.50
2018-09-14T01:29:01.004Z,15.40
2018-09-14T01:30:00.993Z,17.60
2018-09-14T01:31:01.009Z,16.10
2018-09-14T01:32:00.972Z,15.20
2018-09-14T01:33:00.990Z,15.30
2018-09-14T01:34:00.949Z,16.10
2018-09-14T01:35:00.938Z,15.50
2018-09-14T01:36:00.927Z,17.70
2018-09-14T01:37:00.916Z,15.30
2018-09-14T01:38:00.934Z,16.60
2018-09-14T01:39:00.895Z,18.10
2018-09-14T01:40:00.904Z,16.30
2018-09-14T01:41:00.871Z,16.10
2018-09-14T01:42:00.861Z,15.10
2018-09-14T01:43:00.851Z,16.70
2018-09-14T01:44:00.845Z,17.20
2018-09-14T01:45:00.848Z,18.50
2018-09-14T01:46:00.823Z,17.50
2018-09-14T01:47:00.814Z,19.00
2018-09-14T01:48:00.794Z,18.80
2018-09-14T01:49:00.787Z,19.40
2018-09-14T01:50:00.793Z,17.60
2018-09-14T01:51:00.763Z,18.00
2018-09-14T01:52:00.750Z,18.90
2018-09-14T01:53:00.744Z,18.10
2018-09-14T01:54:00.751Z,17.80
2018-09-14T01:55:00.741Z,18.30
2018-09-14T01:56:00.706Z,19.00
2018-09-14T01:57:00.697Z,20.00
2018-09-14T01:58:00.683Z,18.20
2018-09-14T01:59:00.672Z,19.80
2018-09-14T02:00:00.681Z,19.50
2018-09-14T02:01:00.650Z,20.70
2018-09-14T02:02:00.641Z,20.30
2018-09-14T02:03:00.650Z,18.80
2018-09-14T02:04:00.618Z,20.80
2018-09-14T02:05:00.608Z,17.60
2018-09-14T02:06:00.610Z,15.90
2018-09-14T02:07:00.583Z,16.90
2018-09-14T02:08:00.573Z,17.00
2018-09-14T02:09:00.562Z,17.70
2018-09-14T02:10:00.551Z,19.10
2018-09-14T02:11:00.559Z,18.60
2018-09-14T02:12:00.528Z,17.40
2018-09-14T02:13:00.517Z,17.40
2018-09-14T02:14:00.506Z,17.70
2018-09-14T02:15:00.518Z,17.70
2018-09-14T02:16:00.489Z,17.00
2018-09-14T02:17:00.473Z,18.20
2018-09-14T02:18:00.461Z,19.60
2018-09-14T02:19:00.454Z,18.70
2018-09-14T02:20:00.468Z,18.90
2018-09-14T02:21:00.429Z,17.40
2018-09-14T02:22:00.417Z,17.40
2018-09-14T02:23:00.445Z,17.20
2018-09-14T02:24:00.396Z,17.90
2018-09-14T02:25:00.385Z,16.60
2018-09-14T02:26:00.374Z,17.60
2018-09-14T02:27:00.362Z,13.00
2018-09-14T02:28:00.373Z,14.50
2018-09-14T02:29:00.341Z,14.80
2018-09-14T02:30:00.330Z,14.60
2018-09-14T02:31:00.319Z,14.20
2018-09-14T02:32:00.307Z,14.70
2018-09-14T02:33:00.333Z,15.20
2018-09-14T02:34:00.286Z,17.00
2018-09-14T02:35:00.276Z,16.40
2018-09-14T02:36:00.264Z,13.10
2018-09-14T02:37:00.252Z,15.60
2018-09-14T02:38:00.263Z,15.00
2018-09-14T02:39:00.252Z,15.50
2018-09-14T02:40:00.219Z,14.90
2018-09-14T02:41:00.212Z,16.30
2018-09-14T02:42:00.200Z,15.30
2018-09-14T02:43:00.187Z,15.00
2018-09-14T02:44:00.204Z,14.90
2018-09-14T02:45:00.163Z,14.40
2018-09-14T02:46:00.153Z,13.30
2018-09-14T02:47:00.144Z,16.00
2018-09-14T02:48:00.131Z,14.50
2018-09-14T02:49:00.145Z,12.70
2018-09-14T02:50:00.108Z,14.50
2018-09-14T02:51:00.112Z,13.50
2018-09-14T02:52:00.092Z,13.90
2018-09-14T02:53:00.076Z,14.40
2018-09-14T02:54:00.064Z,14.60
2018-09-14T02:55:00.075Z,14.20
2018-09-14T02:56:00.045Z,13.20
2018-09-14T02:57:00.056Z,13.20
2018-09-14T02:58:00.020Z,14.00
2018-09-14T02:59:00.010Z,14.00
2018-09-14T03:00:00.064Z,15.10
2018-09-14T03:00:59.988Z,16.50
2018-09-14T03:01:59.996Z,14.40
2018-09-14T03:02:59.981Z,14.60
2018-09-14T03:03:59.956Z,15.10
2018-09-14T03:04:59.943Z,15.30
2018-09-14T03:05:59.938Z,16.30
2018-09-14T03:06:59.920Z,13.90
2018-09-14T03:07:59.934Z,14.10
2018-09-14T03:08:59.899Z,16.50
2018-09-14T03:09:59.909Z,17.50
2018-09-14T03:10:59.876Z,15.90
2018-09-14T03:11:59.866Z,16.20
2018-09-14T03:12:59.868Z,17.40
2018-09-14T03:13:59.844Z,14.30
2018-09-14T03:14:59.833Z,17.00
2018-09-14T03:15:59.843Z,14.80
2018-09-14T03:16:59.809Z,14.90
2018-09-14T03:17:59.829Z,13.60
2018-09-14T03:18:59.791Z,14.80
2018-09-14T03:19:59.781Z,13.90
2018-09-14T03:20:59.770Z,13.20
2018-09-14T03:21:59.753Z,15.20
2018-09-14T03:22:59.764Z,13.40
2018-09-14T03:23:59.732Z,13.20
2018-09-14T03:24:59.741Z,13.80
2018-09-14T03:25:59.710Z,12.80
2018-09-14T03:26:59.702Z,12.90
2018-09-14T03:27:59.688Z,12.80
2018-09-14T03:28:59.681Z,13.90
2018-09-14T03:29:59.687Z,13.40
2018-09-14T03:30:59.801Z,15.10
2018-09-14T03:31:59.643Z,13.00
2018-09-14T03:32:59.632Z,14.80
2018-09-14T03:33:59.622Z,14.70
2018-09-14T03:34:59.623Z,15.30
2018-09-14T03:35:59.599Z,13.80
2018-09-14T03:36:59.620Z,14.40
2018-09-14T03:37:59.577Z,14.30
2018-09-14T03:38:59.576Z,15.60
2018-09-14T03:39:59.557Z,16.20
2018-09-14T03:40:59.544Z,15.30
2018-09-14T03:41:59.564Z,15.70
2018-09-14T03:42:59.523Z,14.90
2018-09-14T03:43:59.513Z,14.10
2018-09-14T03:44:59.500Z,15.20
2018-09-14T03:45:59.488Z,14.10
2018-09-14T03:46:59.499Z,14.20
2018-09-14T03:47:59.467Z,14.10
2018-09-14T03:48:59.456Z,14.70
2018-09-14T03:49:59.445Z,15.50
2018-09-14T03:50:59.457Z,12.10
2018-09-14T03:51:59.422Z,14.60
2018-09-14T03:52:59.428Z,14.20
2018-09-14T03:53:59.403Z,15.60
2018-09-14T03:54:59.410Z,15.40
2018-09-14T03:55:59.381Z,14.50
2018-09-14T03:56:59.371Z,15.80
2018-09-14T03:57:59.356Z,14.10
2018-09-14T03:58:59.346Z,16.00
2018-09-14T03:59:59.355Z,14.30
2018-09-14T04:00:59.322Z,15.20
2018-09-14T04:01:59.312Z,14.60
2018-09-14T04:02:59.323Z,17.80
2018-09-14T04:03:59.292Z,15.00
2018-09-14T04:04:59.280Z,16.00
2018-09-14T04:05:59.267Z,14.40
2018-09-14T04:06:59.258Z,15.50
2018-09-14T04:07:59.288Z,16.30
2018-09-14T04:08:59.236Z,14.00
2018-09-14T04:09:59.229Z,14.80
2018-09-14T04:10:59.213Z,14.80
2018-09-14T04:11:59.202Z,13.50
2018-09-14T04:12:59.230Z,14.90
2018-09-14T04:13:59.179Z,13.30
2018-09-14T04:14:59.169Z,15.00
2018-09-14T04:15:59.157Z,15.70
2018-09-14T04:16:59.145Z,13.90
2018-09-14T04:17:59.165Z,15.00
2018-09-14T04:18:59.126Z,15.20
2018-09-14T04:19:59.113Z,15.60
2018-09-14T04:20:59.102Z,16.20
2018-09-14T04:21:59.090Z,14.70
2018-09-14T04:22:59.102Z,17.00
2018-09-14T04:23:59.068Z,14.60
2018-09-14T04:24:59.057Z,16.30
2018-09-14T04:25:59.048Z,17.50
2018-09-14T04:26:59.088Z,15.00
2018-09-14T04:27:59.024Z,17.40
2018-09-14T04:28:59.016Z,18.40
2018-09-14T04:29:59.001Z,19.40
2018-09-14T04:30:58.990Z,18.30
2018-09-14T04:31:59.015Z,18.40
2018-09-14T04:32:58.972Z,16.60
2018-09-14T04:33:58.958Z,18.00
2018-09-14T04:34:58.946Z,16.90
2018-09-14T04:35:58.935Z,17.60
2018-09-14T04:36:58.944Z,19.30
2018-09-14T04:37:58.992Z,18.30
2018-09-14T04:38:58.903Z,17.70
2018-09-14T04:39:58.890Z,19.10
2018-09-14T04:40:58.880Z,19.30
2018-09-14T04:41:58.893Z,16.80
2018-09-14T04:42:58.861Z,18.20
2018-09-14T04:43:58.847Z,17.20
2018-09-14T04:44:58.835Z,19.20
2018-09-14T04:45:58.845Z,18.80
2018-09-14T04:46:58.812Z,19.60
2018-09-14T04:47:58.801Z,16.70
2018-09-14T04:48:58.804Z,17.50
2018-09-14T04:49:58.779Z,17.70
2018-09-14T04:50:58.768Z,16.70
2018-09-14T04:51:58.756Z,18.20
2018-09-14T04:52:58.748Z,18.20
2018-09-14T04:53:58.756Z,18.30
2018-09-14T04:54:58.726Z,16.80
2018-09-14T04:55:58.713Z,19.70
2018-09-14T04:56:58.702Z,19.70
2018-09-14T04:57:58.691Z,19.20
2018-09-14T04:58:58.692Z,18.40
2018-09-14T04:59:58.669Z,17.20
2018-09-14T05:00:58.658Z,19.70
2018-09-14T05:01:58.646Z,19.50
2018-09-14T05:02:58.666Z,20.60
2018-09-14T05:03:58.653Z,20.50
2018-09-14T05:04:58.646Z,17.80
2018-09-14T05:05:58.602Z,20.00
2018-09-14T05:06:58.676Z,22.00
2018-09-14T05:07:58.578Z,21.90
2018-09-14T05:08:58.569Z,20.50
2018-09-14T05:09:58.578Z,20.80
2018-09-14T05:10:58.548Z,21.10
2018-09-14T05:11:58.535Z,21.20
2018-09-14T05:12:58.526Z,21.60
2018-09-14T05:13:58.568Z,23.30
2018-09-14T05:14:58.502Z,22.20
2018-09-14T05:15:58.492Z,23.60
2018-09-14T05:16:58.479Z,22.30
2018-09-14T05:17:58.471Z,21.90
2018-09-14T05:18:58.479Z,25.40
2018-09-14T05:19:58.471Z,21.70
2018-09-14T05:20:58.434Z,22.60
2018-09-14T05:21:58.424Z,22.00
2018-09-14T05:22:58.413Z,24.40
2018-09-14T05:23:58.439Z,23.40
2018-09-14T05:24:58.446Z,23.60
2018-09-14T05:25:58.382Z,24.70
2018-09-14T05:26:58.372Z,22.50
2018-09-14T05:27:58.358Z,25.40
2018-09-14T05:28:58.349Z,24.80
2018-09-14T05:29:58.366Z,25.10
2018-09-14T05:30:58.326Z,24.00
2018-09-14T05:31:58.313Z,25.50
2018-09-14T05:32:58.301Z,27.20
2018-09-14T05:33:58.291Z,26.10
2018-09-14T05:34:58.303Z,25.80
2018-09-14T05:35:58.282Z,25.60
2018-09-14T05:36:58.258Z,23.10
2018-09-14T05:37:58.246Z,21.90
2018-09-14T05:38:58.235Z,23.50
2018-09-14T05:39:58.226Z,25.70
2018-09-14T05:40:58.227Z,26.20
2018-09-14T05:41:58.203Z,26.20
2018-09-14T05:42:58.191Z,24.40
2018-09-14T05:43:58.181Z,25.80
2018-09-14T05:44:58.169Z,21.80
2018-09-14T05:45:58.179Z,27.30
2018-09-14T05:46:58.151Z,24.40
2018-09-14T05:47:58.136Z,27.30
2018-09-14T05:48:58.125Z,25.80
2018-09-14T05:49:58.136Z,24.60
2018-09-14T05:50:58.131Z,24.90
2018-09-14T05:51:58.091Z,24.90
2018-09-14T05:52:58.080Z,25.70
2018-09-14T05:53:58.090Z,21.10
2018-09-14T05:54:58.092Z,23.80
2018-09-14T05:55:58.046Z,21.90
2018-09-14T05:56:58.036Z,21.20
2018-09-14T05:57:58.032Z,21.90
2018-09-14T05:58:58.012Z,18.90
2018-09-14T05:59:58.123Z,18.40
2018-09-14T06:00:57.991Z,19.80
2018-09-14T06:01:57.981Z,16.20
2018-09-14T06:02:57.973Z,14.90
2018-09-14T06:03:57.958Z,11.40
2018-09-14T06:04:57.988Z,9.30
2018-09-14T06:05:57.934Z,9.90
2018-09-14T06:06:57.924Z,10.90
2018-09-14T06:07:57.913Z,11.30
2018-09-14T06:08:57.901Z,13.80
2018-09-14T06:09:57.917Z,13.90
2018-09-14T06:10:57.881Z,15.30
2018-09-14T06:11:57.893Z,15.70
2018-09-14T06:12:57.857Z,14.60
2018-09-14T06:13:57.858Z,14.30
2018-09-14T06:14:57.840Z,13.30
2018-09-14T06:15:57.843Z,13.80
2018-09-14T06:16:57.874Z,13.40
2018-09-14T06:17:57.801Z,14.50
2018-09-14T06:18:57.790Z,15.80
2018-09-14T06:19:57.781Z,17.00
2018-09-14T06:20:57.769Z,22.90
2018-09-14T06:21:57.780Z,20.70
2018-09-14T06:22:57.775Z,21.70
2018-09-14T06:23:57.733Z,20.80
2018-09-14T06:24:57.753Z,19.40
2018-09-14T06:25:57.717Z,21.80
2018-09-14T06:26:57.705Z,21.20
2018-09-14T06:27:57.689Z,18.70
2018-09-14T06:28:57.679Z,19.90
2018-09-14T06:29:57.692Z,20.40
2018-09-14T06:30:57.680Z,16.70
2018-09-14T06:31:57.645Z,15.50
2018-09-14T06:32:57.633Z,16.10
2018-09-14T06:33:57.623Z,15.00
2018-09-14T06:34:57.623Z,17.70
2018-09-14T06:35:57.623Z,17.90
2018-09-14T06:36:57.627Z,21.60
2018-09-14T06:37:57.583Z,17.70
2018-09-14T06:38:57.568Z,17.20
2018-09-14T06:39:57.555Z,15.80
2018-09-14T06:40:57.545Z,13.10
2018-09-14T06:41:57.566Z,13.60
2018-09-14T06:42:57.522Z,12.60
2018-09-14T06:43:57.516Z,11.90
2018-09-14T06:44:57.586Z,11.40
2018-09-14T06:45:57.489Z,14.70
2018-09-14T06:46:57.500Z,15.30
2018-09-14T06:47:57.467Z,13.40
2018-09-14T06:48:57.459Z,15.60
2018-09-14T06:49:57.445Z,14.00
2018-09-14T06:50:57.435Z,13.30
2018-09-14T06:51:57.448Z,14.00
2018-09-14T06:52:57.461Z,13.80
2018-09-14T06:53:57.401Z,14.70
2018-09-14T06:54:57.397Z,15.30
2018-09-14T06:55:57.376Z,14.50
2018-09-14T06:56:57.365Z,15.50
2018-09-14T06:57:57.384Z,13.90
2018-09-14T06:58:57.344Z,15.50
2018-09-14T06:59:57.370Z,12.90
2018-09-14T07:00:57.325Z,12.50
2018-09-14T07:01:57.311Z,12.80
2018-09-14T07:02:57.321Z,13.10
2018-09-14T07:03:57.310Z,12.40
2018-09-14T07:04:57.276Z,12.40
2018-09-14T07:05:57.265Z,12.20
2018-09-14T07:06:57.257Z,11.70
2018-09-14T07:07:57.243Z,10.80
2018-09-14T07:08:57.266Z,10.60
2018-09-14T07:09:57.220Z,11.90
2018-09-14T07:10:57.212Z,11.70
2018-09-14T07:11:57.202Z,13.10
2018-09-14T07:12:57.190Z,13.20
2018-09-14T07:13:57.263Z,13.40
2018-09-14T07:14:57.166Z,13.10
2018-09-14T07:15:57.154Z,14.60
2018-09-14T07:16:57.144Z,12.80
2018-09-14T07:17:57.136Z,13.40
2018-09-14T07:18:57.144Z,13.80
2018-09-14T07:19:57.109Z,12.70
2018-09-14T07:20:57.102Z,11.60
2018-09-14T07:21:57.147Z,10.30
2018-09-14T07:22:57.077Z,11.10
2018-09-14T07:23:57.086Z,9.20
2018-09-14T07:24:57.169Z,9.80
2018-09-14T07:25:57.065Z,9.40
2018-09-14T07:26:57.032Z,9.50
2018-09-14T07:27:57.038Z,9.60
2018-09-14T07:28:57.080Z,9.40
2018-09-14T07:29:57.043Z,9.20
2018-09-14T07:30:57.030Z,9.10
2018-09-14T07:31:57.113Z,10.10
2018-09-14T07:32:57.005Z,9.40
2018-09-14T07:33:56.954Z,10.30
2018-09-14T07:34:56.944Z,10.50
2018-09-14T07:35:56.956Z,9.80
2018-09-14T07:36:56.922Z,10.00
2018-09-14T07:37:56.910Z,8.80
2018-09-14T07:38:56.927Z,8.80
2018-09-14T07:39:56.889Z,10.90
2018-09-14T07:40:56.882Z,10.70
2018-09-14T07:41:56.866Z,10.40
2018-09-14T07:42:56.857Z,9.20
2018-09-14T07:43:56.861Z,9.30
2018-09-14T07:44:56.853Z,9.90
2018-09-14T07:45:56.821Z,11.00
2018-09-14T07:46:56.815Z,12.20
2018-09-14T07:47:56.799Z,10.50
2018-09-14T07:48:56.813Z,10.60
2018-09-14T07:49:56.780Z,10.70
2018-09-14T07:50:56.788Z,13.40
2018-09-14T07:51:56.755Z,10.90
2018-09-14T07:52:56.745Z,11.20
2018-09-14T07:53:56.736Z,13.10
2018-09-14T07:54:56.743Z,10.10
2018-09-14T07:55:56.715Z,10.80
2018-09-14T07:56:56.700Z,10.20
2018-09-14T07:57:56.689Z,11.40
2018-09-14T07:58:56.699Z,11.80
2018-09-14T07:59:56.698Z,10.50
2018-09-14T08:00:56.657Z,10.80
2018-09-14T08:01:56.644Z,12.00
2018-09-14T08:02:56.645Z,11.70
2018-09-14T08:03:56.623Z,11.80
2018-09-14T08:04:56.634Z,11.80
2018-09-14T08:05:56.604Z,12.30
2018-09-14T08:06:56.611Z,11.70
2018-09-14T08:07:56.578Z,11.60
2018-09-14T08:08:56.567Z,11.00
2018-09-14T08:09:56.558Z,12.60
2018-09-14T08:10:56.566Z,12.60
2018-09-14T08:11:56.565Z,12.30
2018-09-14T08:12:56.523Z,15.30
2018-09-14T08:13:56.511Z,13.30
2018-09-14T08:14:56.502Z,12.60
2018-09-14T08:15:56.516Z,14.10
2018-09-14T08:16:56.480Z,15.40
2018-09-14T08:17:56.470Z,13.40
2018-09-14T08:18:56.472Z,13.60
2018-09-14T08:19:56.467Z,12.10
2018-09-14T08:20:56.457Z,12.60
2018-09-14T08:21:56.479Z,14.60
2018-09-14T08:22:56.414Z,13.80
2018-09-14T08:23:56.425Z,11.90
2018-09-14T08:24:56.394Z,12.70
2018-09-14T08:25:56.382Z,12.50
2018-09-14T08:26:56.443Z,13.00
2018-09-14T08:27:56.357Z,13.10
2018-09-14T08:28:56.369Z,12.10
2018-09-14T08:29:56.337Z,11.90
2018-09-14T08:30:56.327Z,14.00
2018-09-14T08:31:56.315Z,14.90
2018-09-14T08:32:56.303Z,12.50
2018-09-14T08:33:56.312Z,12.10
2018-09-14T08:34:56.282Z,14.00
2018-09-14T08:35:56.268Z,10.90
2018-09-14T08:36:56.267Z,13.40
2018-09-14T08:37:56.245Z,13.00
2018-09-14T08:38:56.248Z,12.40
2018-09-14T08:39:56.230Z,13.80
2018-09-14T08:40:56.213Z,14.50
2018-09-14T08:41:56.201Z,12.90
2018-09-14T08:42:56.191Z,12.30
2018-09-14T08:43:56.206Z,13.30
2018-09-14T08:44:56.196Z,12.70
2018-09-14T08:45:56.160Z,12.60
2018-09-14T08:46:56.146Z,13.00
2018-09-14T08:47:56.179Z,12.90
2018-09-14T08:48:56.125Z,11.50
2018-09-14T08:49:56.143Z,12.70
2018-09-14T08:50:56.102Z,12.70
2018-09-14T08:51:56.095Z,12.20
2018-09-14T08:52:56.080Z,12.30
2018-09-14T08:53:56.070Z,14.70
2018-09-14T08:54:56.081Z,12.20
2018-09-14T08:55:56.057Z,12.60
2018-09-14T08:56:56.058Z,15.80
2018-09-14T08:57:56.077Z,13.10
2018-09-14T08:58:56.011Z,12.80
2018-09-14T08:59:56.001Z,14.30
2018-09-14T09:00:56.036Z,12.40
2018-09-14T09:01:56.002Z,12.10
2018-09-14T09:02:55.968Z,12.80
2018-09-14T09:03:56.016Z,15.70
2018-09-14T09:04:55.945Z,13.80
2018-09-14T09:05:55.934Z,14.00
2018-09-14T09:06:55.947Z,13.30
2018-09-14T09:07:55.913Z,13.30
2018-09-14T09:08:55.901Z,12.70
2018-09-14T09:09:55.892Z,12.90
2018-09-14T09:10:55.881Z,16.40
2018-09-14T09:11:55.884Z,12.30
2018-09-14T09:12:55.859Z,12.50
2018-09-14T09:13:55.867Z,12.70
2018-09-14T09:14:55.838Z,13.30
2018-09-14T09:15:55.838Z,14.50
2018-09-14T09:16:55.837Z,15.10
2018-09-14T09:17:55.801Z,15.20
2018-09-14T09:18:55.790Z,12.80
2018-09-14T09:19:55.826Z,12.80
2018-09-14T09:20:55.786Z,14.10
2018-09-14T09:21:55.761Z,13.00
2018-09-14T09:22:55.745Z,13.20
2018-09-14T09:23:55.734Z,13.60
2018-09-14T09:24:55.764Z,12.20
2018-09-14T09:25:55.712Z,12.10
2018-09-14T09:26:55.701Z,12.10
2018-09-14T09:27:55.693Z,12.60
2018-09-14T09:28:55.679Z,15.30
2018-09-14T09:29:55.700Z,12.20
2018-09-14T09:30:55.658Z,12.20
2018-09-14T09:31:55.647Z,11.90
2018-09-14T09:32:55.647Z,12.00
2018-09-14T09:33:55.624Z,13.70
2018-09-14T09:34:55.656Z,12.70
2018-09-14T09:35:55.602Z,12.90
2018-09-14T09:36:55.591Z,13.10
2018-09-14T09:37:55.592Z,10.90
2018-09-14T09:38:55.569Z,11.10
2018-09-14T09:39:55.559Z,10.80
2018-09-14T09:40:55.547Z,11.70
2018-09-14T09:41:55.536Z,11.00
2018-09-14T09:42:55.539Z,10.70
2018-09-14T09:43:55.613Z,10.20
2018-09-14T09:44:55.561Z,10.90
2018-09-14T09:45:55.490Z,10.80
2018-09-14T09:46:55.482Z,11.90
2018-09-14T09:47:55.560Z,10.00
2018-09-14T09:48:55.461Z,11.00
2018-09-14T09:49:55.468Z,10.60
2018-09-14T09:50:55.564Z,11.50
2018-09-14T09:51:55.425Z,12.20
2018-09-14T09:52:55.413Z,14.10
2018-09-14T09:53:55.405Z,12.00
2018-09-14T09:54:55.439Z,13.40
2018-09-14T09:55:55.404Z,12.10
2018-09-14T09:56:55.369Z,11.20
2018-09-14T09:57:55.357Z,10.50
2018-09-14T09:58:55.347Z,11.80
2018-09-14T09:59:55.367Z,12.90
2018-09-14T10:00:55.324Z,11.20
2018-09-14T10:01:55.315Z,11.30
2018-09-14T10:02:55.305Z,11.90
2018-09-14T10:03:55.332Z,13.40
2018-09-14T10:04:55.304Z,10.70
2018-09-14T10:05:55.278Z,12.90
2018-09-14T10:06:55.257Z,10.80
2018-09-14T10:07:55.262Z,11.30
2018-09-14T10:08:55.266Z,12.60
2018-09-14T10:09:55.227Z,11.30
2018-09-14T10:10:55.215Z,10.20
2018-09-14T10:11:55.230Z,10.90
2018-09-14T10:12:55.193Z,10.10
2018-09-14T10:13:55.180Z,10.50
2018-09-14T10:14:55.186Z,9.90
2018-09-14T10:15:55.161Z,10.90
2018-09-14T10:16:55.177Z,10.20
2018-09-14T10:17:55.140Z,10.70
2018-09-14T10:18:55.126Z,11.60
2018-09-14T10:19:55.115Z,9.10
2018-09-14T10:20:55.170Z,9.50
2018-09-14T10:21:55.121Z,10.70
2018-09-14T10:22:55.084Z,9.40
2018-09-14T10:23:55.096Z,9.70
2018-09-14T10:24:55.061Z,10.20
2018-09-14T10:25:55.052Z,11.50
2018-09-14T10:26:55.039Z,9.40
2018-09-14T10:27:55.030Z,9.40
2018-09-14T10:28:55.084Z,9.70
2018-09-14T10:29:55.008Z,9.60
2018-09-14T10:30:55.020Z,10.30
2018-09-14T10:31:54.987Z,12.80
2018-09-14T10:32:54.976Z,10.00
2018-09-14T10:33:55.024Z,11.10
2018-09-14T10:34:54.986Z,9.40
2018-09-14T10:35:54.972Z,10.40
2018-09-14T10:36:54.936Z,9.50
2018-09-14T10:37:54.959Z,10.00
2018-09-14T10:38:54.910Z,8.40
2018-09-14T10:39:54.899Z,8.20
2018-09-14T10:40:54.997Z,8.80
2018-09-14T10:41:54.908Z,8.70
2018-09-14T10:42:54.942Z,9.90
2018-09-14T10:43:54.856Z,11.70
2018-09-14T10:44:54.845Z,9.20
2018-09-14T10:45:54.835Z,9.40
2018-09-14T10:46:54.850Z,9.80
2018-09-14T10:47:54.814Z,8.70
2018-09-14T10:48:54.934Z,9.90
2018-09-14T10:49:54.815Z,11.60
2018-09-14T10:50:54.780Z,8.90
2018-09-14T10:51:54.790Z,8.80
2018-09-14T10:52:54.758Z,8.20
2018-09-14T10:53:54.746Z,9.10
2018-09-14T10:54:54.904Z,9.60
2018-09-14T10:55:54.728Z,7.80
2018-09-14T10:56:54.740Z,10.30
2018-09-14T10:57:54.701Z,11.10
2018-09-14T10:58:54.692Z,9.30
2018-09-14T10:59:54.679Z,9.60
2018-09-14T11:00:54.777Z,9.70
2018-09-14T11:01:54.669Z,8.70
2018-09-14T11:02:54.644Z,10.00
2018-09-14T11:03:54.636Z,9.20
2018-09-14T11:04:54.626Z,14.30
2018-09-14T11:05:54.611Z,10.40
2018-09-14T11:06:54.632Z,8.80
2018-09-14T11:07:54.589Z,14.80
2018-09-14T11:08:54.597Z,9.40
2018-09-14T11:09:54.577Z,8.60
2018-09-14T11:10:54.555Z,8.40
2018-09-14T11:11:54.542Z,8.50
2018-09-14T11:12:54.577Z,8.50
2018-09-14T11:13:54.556Z,10.10
2018-09-14T11:14:54.511Z,9.20
2018-09-14T11:15:54.499Z,8.10
2018-09-14T11:16:54.487Z,8.90
2018-09-14T11:17:54.476Z,8.10
2018-09-14T11:18:54.533Z,7.80
2018-09-14T11:19:54.453Z,8.80
2018-09-14T11:20:54.447Z,7.30
2018-09-14T11:21:54.431Z,7.10
2018-09-14T11:22:54.421Z,7.80
2018-09-14T11:23:54.436Z,8.70
2018-09-14T11:24:54.484Z,7.50
2018-09-14T11:25:54.386Z,8.30
2018-09-14T11:26:54.377Z,6.20
2018-09-14T11:27:54.368Z,7.60
2018-09-14T11:28:54.382Z,8.80
2018-09-14T11:29:54.343Z,6.80
2018-09-14T11:30:54.330Z,9.80
2018-09-14T11:31:54.318Z,8.10
2018-09-14T11:32:54.314Z,8.00
2018-09-14T11:33:54.318Z,9.90
2018-09-14T11:34:54.286Z,8.90
2018-09-14T11:35:54.276Z,10.40
2018-09-14T11:36:54.264Z,8.40
2018-09-14T11:37:54.305Z,7.60
2018-09-14T11:38:54.241Z,9.30
2018-09-14T11:39:54.260Z,23.20
2018-09-14T11:40:54.219Z,8.00
2018-09-14T11:41:54.207Z,12.60
2018-09-14T11:42:54.197Z,10.00
2018-09-14T11:43:54.185Z,7.80
2018-09-14T11:44:54.204Z,9.70
2018-09-14T11:45:54.169Z,8.40
2018-09-14T11:46:54.155Z,8.70
2018-09-14T11:47:54.146Z,6.70
2018-09-14T11:48:54.135Z,9.10
2018-09-14T11:49:54.144Z,9.30
2018-09-14T11:50:54.114Z,8.80
2018-09-14T11:51:54.103Z,10.60
2018-09-14T11:52:54.111Z,18.20
2018-09-14T11:53:54.084Z,8.50
2018-09-14T11:54:54.069Z,9.40
2018-09-14T11:55:54.059Z,8.30
2018-09-14T11:56:54.048Z,6.50
2018-09-14T11:57:54.060Z,7.70
2018-09-14T11:58:54.029Z,5.70
2018-09-14T11:59:54.016Z,6.40
2018-09-14T12:00:54.006Z,8.80
2018-09-14T12:01:54.010Z,7.40
2018-09-14T12:02:54.006Z,7.60
2018-09-14T12:03:53.974Z,9.20
2018-09-14T12:04:53.966Z,6.20
2018-09-14T12:05:53.952Z,7.60
2018-09-14T12:06:53.962Z,8.80
2018-09-14T12:07:53.933Z,7.70
2018-09-14T12:08:53.922Z,7.10
2018-09-14T12:09:53.933Z,7.80
2018-09-14T12:10:53.901Z,12.10
2018-09-14T12:11:53.888Z,9.20
2018-09-14T12:12:53.877Z,6.80
2018-09-14T12:13:53.976Z,8.00
2018-09-14T12:14:53.906Z,7.60
2018-09-14T12:15:53.877Z,7.30
2018-09-14T12:16:53.836Z,7.70
2018-09-14T12:17:53.824Z,7.90
2018-09-14T12:18:53.821Z,7.90
2018-09-14T12:19:53.808Z,6.20
2018-09-14T12:20:53.824Z,7.00
2018-09-14T12:21:53.781Z,7.40
2018-09-14T12:22:53.770Z,7.30
2018-09-14T12:23:53.761Z,10.60
2018-09-14T12:24:53.749Z,6.30
2018-09-14T12:25:53.751Z,7.40
2018-09-14T12:26:53.757Z,8.10
2018-09-14T12:27:53.717Z,7.50
2018-09-14T12:28:53.704Z,14.20
2018-09-14T12:29:53.693Z,8.30
2018-09-14T12:30:53.685Z,11.10
2018-09-14T12:31:53.703Z,7.90
2018-09-14T12:32:53.662Z,8.00
2018-09-14T12:33:53.651Z,8.10
2018-09-14T12:34:53.639Z,5.70
2018-09-14T12:35:53.629Z,6.80
2018-09-14T12:36:53.636Z,8.70
2018-09-14T12:37:53.608Z,7.70
2018-09-14T12:38:53.597Z,8.00
2018-09-14T12:39:53.605Z,7.70
2018-09-14T12:40:53.575Z,6.90
2018-09-14T12:41:53.565Z,7.30
2018-09-14T12:42:53.555Z,7.60
2018-09-14T12:43:53.544Z,7.70
2018-09-14T12:44:53.568Z,8.50
2018-09-14T12:45:53.523Z,6.20
2018-09-14T12:46:53.512Z,6.80
2018-09-14T12:47:53.532Z,7.30
2018-09-14T12:48:53.494Z,5.70
2018-09-14T12:49:53.480Z,10.50
2018-09-14T12:50:53.468Z,6.50
2018-09-14T12:51:53.463Z,7.80
2018-09-14T12:52:53.482Z,6.40
2018-09-14T12:53:53.440Z,6.40
2018-09-14T12:54:53.426Z,9.60
2018-09-14T12:55:53.413Z,7.90
2018-09-14T12:56:53.405Z,5.90